createdAt,value
2018-11-25T00:03:39.953Z,97306.85
2018-11-25T00:06:08.634Z,97312.72
2018-11-25T00:08:36.062Z,97306.27
2018-11-25T00:11:03.396Z,97307.70
2018-11-25T00:13:30.820Z,97312.16
2018-11-25T00:16:04.367Z,97317.16
2018-11-25T00:18:30.938Z,97315.58
2018-11-25T00:21:01.799Z,97313.44
2018-11-25T00:23:30.639Z,97316.85
2018-11-25T00:25:57.213Z,97317.66
2018-11-25T00:28:24.654Z,97319.61
2018-11-25T00:30:53.411Z,97321.72
2018-11-25T00:33:20.602Z,97319.92
2018-11-25T00:35:50.246Z,97320.41
2018-11-25T00:38:16.650Z,97320.91
2018-11-25T00:40:45.523Z,97318.25
2018-11-25T00:43:11.977Z,97318.05
2018-11-25T00:45:40.706Z,97316.02
2018-11-25T00:48:07.165Z,97310.47
2018-11-25T00:53:21.076Z,97310.32
2018-11-25T00:55:48.602Z,97309.42
2018-11-25T00:58:19.946Z,97300.33
2018-11-25T01:00:47.324Z,97308.89
2018-11-25T01:03:13.773Z,97306.95
2018-11-25T01:05:40.278Z,97302.22
2018-11-25T01:08:09.110Z,97304.38
2018-11-25T01:10:36.705Z,97298.71
2018-11-25T01:13:04.097Z,97293.33
2018-11-25T01:15:33.793Z,97293.25
2018-11-25T01:18:01.217Z,97289.98
2018-11-25T01:20:28.912Z,97287.35
2018-11-25T01:22:56.542Z,97284.05
2018-11-25T01:25:23.960Z,97281.38
2018-11-25T01:27:54.982Z,97281.31
2018-11-25T01:30:21.695Z,97274.11
2018-11-25T01:32:49.112Z,97266.11
2018-11-25T01:35:15.813Z,97250.44
2018-11-25T01:37:42.346Z,97252.05
2018-11-25T01:40:09.566Z,97270.13
2018-11-25T01:42:36.998Z,97265.60
2018-11-25T01:45:06.106Z,97252.92
2018-11-25T01:47:33.543Z,97245.23
2018-11-25T01:50:01.030Z,97236.65
2018-11-25T01:52:30.267Z,97234.39
2018-11-25T01:54:57.698Z,97239.48
2018-11-25T01:57:25.115Z,97241.89
2018-11-25T01:59:55.456Z,97234.36
2018-11-25T02:02:22.870Z,97244.40
2018-11-25T02:04:49.355Z,97235.36
2018-11-25T02:07:18.663Z,97236.05
2018-11-25T02:09:46.160Z,97232.23
2018-11-25T02:12:12.860Z,97228.59
2018-11-25T02:14:41.470Z,97227.30
2018-11-25T02:19:55.573Z,97221.52
2018-11-25T02:22:23.011Z,97217.86
2018-11-25T02:24:54.044Z,97216.52
2018-11-25T02:27:22.141Z,97213.52
2018-11-25T02:29:49.801Z,97208.46
2018-11-25T02:32:20.369Z,97202.58
2018-11-25T02:34:47.029Z,97195.70
2018-11-25T02:37:17.760Z,97191.72
2018-11-25T02:39:45.193Z,97183.74
2018-11-25T02:42:12.327Z,97183.42
2018-11-25T02:44:41.784Z,97176.70
2018-11-25T02:47:09.455Z,97180.86
2018-11-25T02:49:36.706Z,97183.88
2018-11-25T02:52:05.609Z,97186.31
2018-11-25T02:54:36.243Z,97180.62
2018-11-25T02:57:05.839Z,97176.69
2018-11-25T02:59:33.275Z,97168.13
2018-11-25T03:01:59.975Z,97172.44
2018-11-25T03:04:26.631Z,97177.94
2018-11-25T03:06:57.451Z,97175.73
2018-11-25T03:09:24.885Z,97175.88
2018-11-25T03:11:54.746Z,97178.67
2018-11-25T03:14:25.376Z,97180.87
2018-11-25T03:16:52.809Z,97184.86
2018-11-25T03:19:20.277Z,97184.98
2018-11-25T03:21:47.721Z,97179.10
2018-11-25T03:24:15.391Z,97177.41
2018-11-25T03:26:42.275Z,97187.78
2018-11-25T03:29:09.700Z,97193.57
2018-11-25T03:31:40.941Z,97187.30
2018-11-25T03:34:07.606Z,97188.17
2018-11-25T03:36:38.038Z,97182.51
2018-11-25T03:39:05.472Z,97181.63
2018-11-25T03:41:32.580Z,97176.34
2018-11-25T03:44:00.036Z,97176.30
2018-11-25T03:46:27.449Z,97176.68
2018-11-25T03:48:54.687Z,97178.25
2018-11-25T03:51:22.125Z,97173.08
2018-11-25T03:53:49.574Z,97172.31
2018-11-25T03:56:16.034Z,97174.36
2018-11-25T03:58:49.994Z,97173.67
2018-11-25T04:01:17.650Z,97177.45
2018-11-25T04:03:44.419Z,97181.95
2018-11-25T04:06:11.082Z,97182.76
2018-11-25T04:08:56.773Z,97179.07
2018-11-25T04:11:24.169Z,97182.86
2018-11-25T04:13:52.994Z,97182.66
2018-11-25T04:16:23.921Z,97183.12
2018-11-25T04:18:51.941Z,97177.78
2018-11-25T04:21:20.829Z,97174.17
2018-11-25T04:23:47.280Z,97184.51
2018-11-25T04:26:13.743Z,97173.37
2018-11-25T04:28:41.195Z,97164.44
2018-11-25T04:31:07.694Z,97161.52
2018-11-25T04:33:34.343Z,97163.63
2018-11-25T04:36:00.791Z,97160.58
2018-11-25T04:38:27.227Z,97155.34
2018-11-25T04:40:53.670Z,97152.19
2018-11-25T04:43:20.120Z,97158.96
2018-11-25T04:45:46.548Z,97157.05
2018-11-25T04:48:13.021Z,97151.77
2018-11-25T04:50:40.462Z,97154.70
2018-11-25T04:53:06.899Z,97152.45
2018-11-25T04:55:33.355Z,97152.63
2018-11-25T04:58:00.778Z,97154.22
2018-11-25T05:00:27.209Z,97161.15
2018-11-25T05:02:53.662Z,97165.27
2018-11-25T05:05:20.094Z,97156.70
2018-11-25T05:07:46.514Z,97151.44
2018-11-25T05:10:12.964Z,97155.63
2018-11-25T05:12:39.445Z,97147.70
2018-11-25T05:15:05.872Z,97143.42
2018-11-25T05:17:32.348Z,97153.90
2018-11-25T05:19:59.784Z,97152.45
2018-11-25T05:22:26.200Z,97145.49
2018-11-25T05:24:52.662Z,97144.35
2018-11-25T05:27:20.153Z,97141.68
2018-11-25T05:29:46.567Z,97141.13
2018-11-25T05:32:13.943Z,97133.37
2018-11-25T05:34:40.339Z,97137.99
2018-11-25T05:37:06.789Z,97139.02
2018-11-25T05:39:33.252Z,97130.44
2018-11-25T05:42:00.710Z,97130.25
2018-11-25T05:44:27.106Z,97125.14
2018-11-25T05:46:53.560Z,97131.05
2018-11-25T05:49:19.982Z,97127.53
2018-11-25T05:51:46.403Z,97128.31
2018-11-25T05:54:12.860Z,97129.06
2018-11-25T05:56:40.336Z,97122.00
2018-11-25T05:59:07.780Z,97122.25
2018-11-25T06:01:34.235Z,97121.05
2018-11-25T06:04:01.658Z,97119.17
2018-11-25T06:06:28.156Z,97118.16
2018-11-25T06:08:54.610Z,97126.50
2018-11-25T06:11:22.043Z,97124.05
2018-11-25T06:13:48.525Z,97121.47
2018-11-25T06:16:14.983Z,97117.72
2018-11-25T06:18:41.419Z,97118.45
2018-11-25T06:21:07.875Z,97117.02
2018-11-25T06:23:34.321Z,97118.16
2018-11-25T06:26:02.379Z,97116.16
2018-11-25T06:28:31.851Z,97114.63
2018-11-25T06:31:02.772Z,97110.56
2018-11-25T06:33:29.225Z,97106.72
2018-11-25T06:35:58.107Z,97112.69
2018-11-25T06:38:36.907Z,97111.77
2018-11-25T06:41:04.932Z,97107.53
2018-11-25T06:43:34.592Z,97107.88
2018-11-25T06:46:02.852Z,97111.92
2018-11-25T06:48:30.265Z,97115.27
2018-11-25T06:51:00.502Z,97111.04
2018-11-25T06:53:27.945Z,97112.39
2018-11-25T06:55:55.812Z,97111.08
2018-11-25T06:58:24.390Z,97112.36
2018-11-25T07:00:53.699Z,97111.16
2018-11-25T07:03:21.852Z,97114.66
2018-11-25T07:06:04.386Z,97114.85
2018-11-25T07:08:30.839Z,97112.66
2018-11-25T07:10:58.505Z,97105.84
2018-11-25T07:13:26.424Z,97109.73
2018-11-25T07:15:54.902Z,97103.17
2018-11-25T07:18:22.968Z,97107.41
2018-11-25T07:20:56.585Z,97103.86
2018-11-25T07:23:24.683Z,97102.33
2018-11-25T07:31:25.245Z,97105.94
2018-11-25T07:33:51.680Z,97105.91
2018-11-25T07:36:18.119Z,97105.44
2018-11-25T07:38:46.644Z,97102.20
2018-11-25T07:41:16.356Z,97106.81
2018-11-25T07:43:53.994Z,97102.45
2018-11-25T07:46:20.442Z,97102.48
2018-11-25T07:48:53.394Z,97110.16
2018-11-25T07:51:20.089Z,97103.15
2018-11-25T07:53:49.118Z,97107.78
2018-11-25T07:56:16.923Z,97105.69
2018-11-25T07:58:47.888Z,97101.70
2018-11-25T08:01:14.568Z,97099.83
2018-11-25T08:03:41.012Z,97098.83
2018-11-25T08:06:07.791Z,97100.88
2018-11-25T08:08:35.471Z,97103.13
2018-11-25T08:13:49.359Z,97091.26
2018-11-25T08:16:20.827Z,97089.79
2018-11-25T08:18:47.987Z,97085.44
2018-11-25T08:21:15.238Z,97085.83
2018-11-25T08:23:45.494Z,97085.44
2018-11-25T08:26:13.163Z,97089.22
2018-11-25T08:28:53.806Z,97083.14
2018-11-25T08:31:21.576Z,97083.69
2018-11-25T08:33:48.023Z,97080.73
2018-11-25T08:36:17.136Z,97077.69
2018-11-25T08:38:43.634Z,97074.27
2018-11-25T08:41:11.768Z,97074.98
2018-11-25T08:43:39.167Z,97075.83
2018-11-25T08:46:06.847Z,97078.02
2018-11-25T08:48:34.064Z,97073.44
2018-11-25T08:51:01.436Z,97078.90
2018-11-25T08:53:27.882Z,97068.08
2018-11-25T08:55:54.328Z,97076.45
2018-11-25T08:58:23.985Z,97066.09
2018-11-25T09:03:40.768Z,97061.75
2018-11-25T09:06:07.251Z,97066.44
2018-11-25T09:08:33.936Z,97066.80
2018-11-25T09:11:01.605Z,97047.55
2018-11-25T09:13:28.846Z,97046.20
2018-11-25T09:15:57.683Z,97049.93
2018-11-25T09:18:24.165Z,97053.49
2018-11-25T09:20:57.019Z,97049.13
2018-11-25T09:23:24.242Z,97045.97
2018-11-25T09:25:50.961Z,97042.25
2018-11-25T09:28:21.672Z,97037.69
2018-11-25T09:31:04.528Z,97035.98
2018-11-25T09:33:30.998Z,97034.84
2018-11-25T09:35:58.867Z,97030.41
2018-11-25T09:38:30.774Z,97033.95
2018-11-25T09:41:00.310Z,97030.09
2018-11-25T09:43:27.596Z,97018.23
2018-11-25T09:45:58.001Z,97018.56
2018-11-25T09:48:27.141Z,97016.53
2018-11-25T09:51:05.374Z,97010.55
2018-11-25T09:53:31.790Z,96995.88
2018-11-25T09:55:59.204Z,96985.80
2018-11-25T09:58:28.113Z,96979.05
2018-11-25T10:03:41.364Z,96973.80
2018-11-25T10:06:10.289Z,96968.71
2018-11-25T10:08:36.959Z,96966.87
2018-11-25T10:11:05.614Z,96961.47
2018-11-25T10:13:37.332Z,96958.07
2018-11-25T10:18:53.054Z,96948.16
2018-11-25T10:21:22.495Z,96949.83
2018-11-25T10:26:34.898Z,96944.87
2018-11-25T10:29:02.093Z,96941.23
2018-11-25T10:31:32.884Z,96940.78
2018-11-25T10:34:01.075Z,96936.22
2018-11-25T10:36:29.126Z,96935.05
2018-11-25T10:38:59.414Z,96927.64
2018-11-25T10:41:29.370Z,96922.66
2018-11-25T10:44:12.107Z,96920.11
2018-11-25T10:46:40.350Z,96910.12
2018-11-25T10:52:10.227Z,96910.12
2018-11-25T10:54:41.531Z,96903.77
2018-11-25T10:57:13.669Z,96899.77
2018-11-25T10:59:44.427Z,96893.73
2018-11-25T11:04:58.397Z,96877.98
2018-11-25T11:07:34.646Z,96878.48
2018-11-25T11:10:04.333Z,96874.59
2018-11-25T11:12:33.411Z,96865.77
2018-11-25T11:15:04.068Z,96862.81
2018-11-25T11:17:35.517Z,96848.68
2018-11-25T11:20:03.191Z,96837.45
2018-11-25T11:22:31.483Z,96845.72
2018-11-25T11:25:00.497Z,96841.23
2018-11-25T11:27:27.479Z,96841.64
2018-11-25T11:29:55.154Z,96842.25
2018-11-25T11:32:23.303Z,96840.70
2018-11-25T11:34:51.234Z,96836.86
2018-11-25T11:37:18.903Z,96827.23
2018-11-25T11:39:48.483Z,96829.78
2018-11-25T11:42:18.804Z,96821.72
2018-11-25T11:44:47.562Z,96813.92
2018-11-25T11:55:35.474Z,96804.95
2018-11-25T11:58:03.155Z,96794.48
2018-11-25T12:00:29.624Z,96798.44
2018-11-25T12:03:00.359Z,96792.46
2018-11-25T12:08:14.935Z,96785.09
2018-11-25T12:13:29.692Z,96784.16
2018-11-25T12:15:56.386Z,96775.83
2018-11-25T12:18:25.405Z,96772.55
2018-11-25T12:20:54.459Z,96772.37
2018-11-25T12:23:23.868Z,96769.69
2018-11-25T12:25:57.354Z,96762.61
2018-11-25T12:31:14.079Z,96755.33
2018-11-25T12:33:46.180Z,96751.52
2018-11-25T12:36:12.861Z,96748.71
2018-11-25T12:38:41.682Z,96742.84
2018-11-25T12:43:58.828Z,96738.92
2018-11-25T12:49:11.826Z,96732.23
2018-11-25T12:54:35.073Z,96726.73
2018-11-25T12:57:12.394Z,96713.98
2018-11-25T13:02:29.295Z,96707.09
2018-11-25T13:05:10.765Z,96705.73
2018-11-25T13:07:37.638Z,96708.83
2018-11-25T13:10:04.540Z,96702.33
2018-11-25T13:15:18.761Z,96690.72
2018-11-25T13:20:32.796Z,96682.03
2018-11-25T13:23:01.485Z,96682.80
2018-11-25T13:25:32.152Z,96676.73
2018-11-25T13:28:02.363Z,96670.61
2018-11-25T13:30:31.328Z,96667.41
2018-11-25T13:33:02.435Z,96664.68
2018-11-25T13:35:33.126Z,96665.28
2018-11-25T13:38:02.310Z,96664.34
2018-11-25T13:40:29.972Z,96658.78
2018-11-25T13:42:58.114Z,96656.00
2018-11-25T13:45:25.365Z,96653.90
2018-11-25T13:48:01.982Z,96650.05
2018-11-25T13:50:29.641Z,96649.05
2018-11-25T13:52:58.628Z,96645.83
2018-11-25T13:55:27.532Z,96646.84
2018-11-25T13:57:54.285Z,96637.53
2018-11-25T14:00:38.451Z,96639.60
2018-11-25T14:03:06.498Z,96640.82
2018-11-25T14:05:42.474Z,96632.70
2018-11-25T14:08:12.013Z,96631.63
2018-11-25T14:16:18.566Z,96619.59
2018-11-25T14:21:34.474Z,96619.12
2018-11-25T14:24:16.381Z,96606.84
2018-11-25T14:26:43.261Z,96603.27
2018-11-25T14:29:12.700Z,96604.86
2018-11-25T14:31:40.475Z,96592.19
2018-11-25T14:34:09.896Z,96596.16
2018-11-25T14:36:40.441Z,96591.06
2018-11-25T14:39:08.137Z,96594.19
2018-11-25T14:41:35.409Z,96589.02
2018-11-25T14:44:04.960Z,96583.47
2018-11-25T14:46:35.719Z,96583.98
2018-11-25T14:49:02.390Z,96577.36
2018-11-25T14:51:33.025Z,96578.58
2018-11-25T14:56:49.820Z,96569.78
2018-11-25T15:07:46.486Z,96558.52
2018-11-25T15:10:14.738Z,96552.53
2018-11-25T15:15:27.758Z,96544.61
2018-11-25T15:23:29.014Z,96535.31
2018-11-25T15:25:55.693Z,96533.63
2018-11-25T15:28:22.168Z,96537.23
2018-11-25T15:36:22.458Z,96521.30
2018-11-25T15:38:49.138Z,96525.54
2018-11-25T15:41:17.296Z,96530.14
2018-11-25T15:43:45.678Z,96516.92
2018-11-25T15:46:14.783Z,96523.78
2018-11-25T15:48:41.935Z,96520.88
2018-11-25T15:51:09.092Z,96521.02
2018-11-25T15:53:38.409Z,96520.36
2018-11-25T15:56:21.850Z,96514.61
2018-11-25T16:01:40.648Z,96518.47
2018-11-25T16:04:07.768Z,96517.27
2018-11-25T16:06:34.458Z,96516.39
2018-11-25T16:11:50.588Z,96518.16
2018-11-25T16:14:21.428Z,96514.77
2018-11-25T16:16:48.091Z,96512.56
2018-11-25T16:19:15.771Z,96509.61
2018-11-25T16:21:44.695Z,96509.39
2018-11-25T16:24:11.584Z,96500.17
2018-11-25T16:29:28.119Z,96503.06
2018-11-25T16:31:55.672Z,96500.80
2018-11-25T16:34:24.965Z,96495.53
2018-11-25T16:36:51.670Z,96489.75
2018-11-25T16:39:22.419Z,96494.67
2018-11-25T16:44:42.350Z,96487.24
2018-11-25T16:47:10.865Z,96487.81
2018-11-25T16:49:37.548Z,96484.70
2018-11-25T16:52:13.976Z,96482.72
2018-11-25T16:54:41.655Z,96478.86
2018-11-25T16:57:10.273Z,96473.98
2018-11-25T16:59:41.313Z,96476.57
2018-11-25T17:02:08.800Z,96476.52
2018-11-25T17:04:39.690Z,96468.19
2018-11-25T17:07:08.105Z,96470.01
2018-11-25T17:09:49.767Z,96462.61
2018-11-25T17:12:16.497Z,96463.64
2018-11-25T17:14:44.922Z,96465.95
2018-11-25T17:19:59.887Z,96458.36
2018-11-25T17:23:21.718Z,96463.51
2018-11-25T17:25:52.435Z,96457.17
2018-11-25T17:28:21.559Z,96456.06
2018-11-25T17:30:58.118Z,96457.39
2018-11-25T17:33:32.105Z,96450.47
2018-11-25T17:35:59.783Z,96448.95
2018-11-25T17:38:30.453Z,96447.55
2018-11-25T17:46:31.929Z,96441.13
2018-11-25T17:48:59.486Z,96431.60
2018-11-25T17:51:31.683Z,96433.35
2018-11-25T17:53:59.942Z,96432.98
2018-11-25T17:56:37.208Z,96427.20
2018-11-25T17:59:03.890Z,96425.08
2018-11-25T18:01:42.498Z,96423.59
2018-11-25T18:04:11.777Z,96423.59
2018-11-25T18:06:44.353Z,96425.08
2018-11-25T18:12:09.319Z,96417.16
2018-11-25T18:14:41.075Z,96416.48
2018-11-25T18:17:13.746Z,96416.66
2018-11-25T18:22:27.079Z,96408.65
2018-11-25T18:24:53.976Z,96406.38
2018-11-25T18:27:21.648Z,96404.87
2018-11-25T18:29:50.494Z,96402.09
2018-11-25T18:32:18.142Z,96398.59
2018-11-25T18:34:47.262Z,96403.14
2018-11-25T18:37:16.802Z,96392.54
2018-11-25T18:42:30.051Z,96393.77
2018-11-25T18:45:00.980Z,96396.73
2018-11-25T18:50:15.842Z,96390.42
2018-11-25T18:52:46.818Z,96384.20
2018-11-25T18:58:06.848Z,96381.00
2018-11-25T19:00:39.550Z,96378.38
2018-11-25T19:03:06.344Z,96378.61
2018-11-25T19:05:37.293Z,96381.61
2018-11-25T19:08:19.094Z,96375.81
2018-11-25T19:11:03.147Z,96372.41
2018-11-25T19:13:33.049Z,96369.20
2018-11-25T19:15:59.747Z,96377.69
2018-11-25T19:18:31.091Z,96371.41
2018-11-25T19:23:48.420Z,96371.80
2018-11-25T19:26:15.176Z,96361.52
2018-11-25T19:28:43.369Z,96364.10
2018-11-25T19:33:59.722Z,96357.28
2018-11-25T19:36:28.456Z,96350.54
2018-11-25T19:38:59.155Z,96353.05
2018-11-25T19:44:24.519Z,96346.70
2018-11-25T19:47:00.492Z,96338.37
2018-11-25T19:49:28.202Z,96340.66
2018-11-25T19:51:54.933Z,96338.54
2018-11-25T19:54:25.740Z,96337.25
2018-11-25T20:02:30.605Z,96336.22
2018-11-25T20:07:46.427Z,96339.81
2018-11-25T20:10:15.063Z,96337.28
2018-11-25T20:12:42.553Z,96333.77
2018-11-25T20:15:16.127Z,96329.36
2018-11-25T20:17:53.672Z,96333.67
2018-11-25T20:20:15.831Z,96329.28
2018-11-25T20:22:43.870Z,96323.91
2018-11-25T20:25:12.849Z,96320.34
2018-11-25T20:27:54.366Z,96320.75
2018-11-25T20:30:26.508Z,96317.29
2018-11-25T20:32:55.215Z,96314.20
2018-11-25T20:35:32.202Z,96316.80
2018-11-25T20:38:12.148Z,96312.36
2018-11-25T20:40:42.804Z,96315.88
2018-11-25T20:43:18.869Z,96309.34
2018-11-25T20:45:45.522Z,96315.52
2018-11-25T20:53:46.482Z,96306.39
2018-11-25T20:56:13.124Z,96294.05
2018-11-25T20:58:42.649Z,96292.98
2018-11-25T21:01:12.504Z,96293.16
2018-11-25T21:03:38.929Z,96291.07
2018-11-25T21:06:13.353Z,96285.42
2018-11-25T21:08:43.228Z,96280.85
2018-11-25T21:11:14.007Z,96277.69
2018-11-25T21:13:47.980Z,96277.47
2018-11-25T21:16:15.677Z,96274.14
2018-11-25T21:18:44.732Z,96271.52
2018-11-25T21:21:21.581Z,96274.49
2018-11-25T21:23:58.835Z,96276.84
2018-11-25T21:31:58.399Z,96270.09
2018-11-25T21:34:26.552Z,96270.00
2018-11-25T21:36:55.500Z,96264.71
2018-11-25T21:39:23.512Z,96261.69
2018-11-25T21:41:51.218Z,96256.42
2018-11-25T21:44:18.235Z,96254.56
2018-11-25T21:46:48.821Z,96245.80
2018-11-25T21:49:18.631Z,96241.05
2018-11-25T21:51:47.822Z,96239.88
2018-11-25T21:54:15.471Z,96242.02
2018-11-25T21:56:45.900Z,96244.56
2018-11-25T21:59:13.619Z,96241.36
2018-11-25T22:01:40.526Z,96240.39
2018-11-25T22:04:14.113Z,96244.08
2018-11-25T22:06:41.381Z,96239.39
2018-11-25T22:09:07.806Z,96239.14
2018-11-25T22:11:34.275Z,96238.86
2018-11-25T22:14:01.474Z,96235.18
2018-11-25T22:16:30.107Z,96238.08
2018-11-25T22:18:56.539Z,96232.57
2018-11-25T22:21:34.846Z,96234.27
2018-11-25T22:24:02.282Z,96231.69
2018-11-25T22:26:30.934Z,96229.91
2018-11-25T22:28:57.501Z,96225.22
2018-11-25T22:31:24.935Z,96224.16
2018-11-25T22:33:52.358Z,96222.65
2018-11-25T22:36:19.294Z,96218.75
2018-11-25T22:38:48.714Z,96213.92
2018-11-25T22:41:18.636Z,96211.67
2018-11-25T22:43:50.387Z,96209.95
2018-11-25T22:46:18.438Z,96210.59
2018-11-25T22:48:45.649Z,96205.14
2018-11-25T22:51:13.817Z,96203.02
2018-11-25T22:56:28.253Z,96200.48
2018-11-25T22:58:58.202Z,96196.86
2018-11-25T23:01:25.903Z,96192.92
2018-11-25T23:03:54.079Z,96192.88
2018-11-25T23:06:21.816Z,96182.37
2018-11-25T23:08:51.904Z,96174.72
2018-11-25T23:11:20.102Z,96182.80
2018-11-25T23:13:50.981Z,96176.84
2018-11-25T23:16:17.649Z,96176.13
2018-11-25T23:18:47.233Z,96168.89
2018-11-25T23:21:14.682Z,96159.92
2018-11-25T23:23:41.838Z,96157.08
2018-11-25T23:26:08.767Z,96155.91
2018-11-25T23:28:36.479Z,96158.63
2018-11-25T23:31:03.919Z,96155.62
2018-11-25T23:33:32.503Z,96155.15
2018-11-25T23:36:00.566Z,96155.02
2018-11-25T23:38:28.250Z,96153.14
2018-11-25T23:40:55.884Z,96153.19
2018-11-25T23:43:26.482Z,96141.38
2018-11-25T23:45:53.698Z,96139.27
2018-11-25T23:48:21.470Z,96140.38
2018-11-25T23:50:49.148Z,96131.73
2018-11-25T23:53:18.944Z,96133.23
2018-11-25T23:55:45.857Z,96134.51
2018-11-25T23:58:13.282Z,96124.76
